Time;durP1;ratioP1;P1;durP2;ratioP2;P2;SDS_P1;SDS_P2;PMS_P1;PMS_P2;Temp;Humidity;BMP_temperature;BMP_pressure;BME280_temperature;BME280_humidity;BME280_pressure;Samples;Min_cycle;Max_cycle;Signal;HPM_P1;HPM_P2
2021/06/21 00:00:14;;;;;;;0.50;0.40;;;19.90;99.90;;;;;;5052920;28;20440;-78
2021/06/21 00:02:42;;;;;;;0.70;0.60;;;19.70;99.90;;;;;;5044862;28;20448;-78
2021/06/21 00:05:11;;;;;;;0.50;0.40;;;19.60;99.90;;;;;;5053757;28;20435;-79
2021/06/21 00:07:37;;;;;;;1.17;0.60;;;19.50;99.90;;;;;;5053101;28;20473;-78
2021/06/21 00:10:05;;;;;;;0.60;0.50;;;19.50;99.90;;;;;;5053580;28;20433;-78
2021/06/21 00:12:32;;;;;;;0.50;0.30;;;19.40;99.90;;;;;;5053588;28;20460;-78
2021/06/21 00:15:00;;;;;;;0.50;0.40;;;19.40;99.90;;;;;;5053489;28;20433;-79
2021/06/21 00:17:27;;;;;;;0.50;0.30;;;19.40;99.90;;;;;;5052984;28;20445;-76
2021/06/21 00:19:54;;;;;;;0.50;0.30;;;19.40;99.90;;;;;;5053298;28;20437;-77
2021/06/21 00:22:21;;;;;;;0.50;0.40;;;19.30;99.90;;;;;;5052712;28;20469;-76
2021/06/21 00:24:47;;;;;;;0.50;0.30;;;19.40;99.90;;;;;;5052918;28;20455;-77
2021/06/21 00:27:15;;;;;;;0.50;0.30;;;19.40;99.90;;;;;;5052611;28;20480;-79
2021/06/21 00:29:42;;;;;;;0.50;0.30;;;19.30;99.90;;;;;;5053056;28;20476;-76
2021/06/21 00:32:10;;;;;;;0.50;0.40;;;19.30;99.90;;;;;;5044172;28;20922;-77
2021/06/21 00:34:37;;;;;;;0.50;0.30;;;19.30;99.90;;;;;;5052482;28;20965;-78
2021/06/21 00:37:04;;;;;;;0.50;0.30;;;19.30;99.90;;;;;;5052378;28;20456;-77
2021/06/21 00:39:31;;;;;;;0.50;0.30;;;19.40;99.90;;;;;;5053323;28;20485;-78
2021/06/21 00:41:58;;;;;;;1.40;1.30;;;19.30;99.90;;;;;;5052495;28;20464;-77
2021/06/21 00:44:25;;;;;;;0.50;0.40;;;19.30;99.90;;;;;;5052601;28;20448;-77
2021/06/21 00:46:52;;;;;;;5.03;3.53;;;19.30;99.90;;;;;;5052122;28;20473;-77
2021/06/21 00:49:20;;;;;;;0.60;0.50;;;19.30;99.90;;;;;;5052808;28;20451;-77
2021/06/21 00:51:47;;;;;;;2.00;1.90;;;19.30;99.90;;;;;;5052029;28;20472;-77
2021/06/21 00:54:14;;;;;;;1.03;0.77;;;19.30;99.90;;;;;;5052917;28;20455;-78
2021/06/21 00:56:40;;;;;;;3.50;3.30;;;19.20;99.90;;;;;;5052068;28;20507;-77
2021/06/21 00:59:07;;;;;;;2.47;1.07;;;19.10;99.90;;;;;;5052760;28;20795;-77
2021/06/21 01:01:34;;;;;;;0.50;0.30;;;19.10;99.90;;;;;;5047105;28;20468;-77
2021/06/21 01:04:02;;;;;;;1.00;1.00;;;19.10;99.90;;;;;;5048060;28;20449;-77
2021/06/21 01:06:30;;;;;;;0.50;0.30;;;19.10;99.90;;;;;;5051947;28;20475;-78
2021/06/21 01:08:57;;;;;;;0.50;0.30;;;19.10;99.90;;;;;;5052677;28;20437;-78
2021/06/21 01:11:34;;;;;;;0.67;0.67;;;19.10;99.90;;;;;;5052021;28;20452;-76
2021/06/21 01:14:09;;;;;;;0.50;0.40;;;19.10;99.90;;;;;;5052544;28;20436;-76
2021/06/21 01:16:42;;;;;;;2.00;1.90;;;19.00;99.90;;;;;;5051389;28;20436;-76
2021/06/21 01:19:15;;;;;;;0.97;0.87;;;19.00;99.90;;;;;;5051826;28;20445;-77
2021/06/21 01:22:22;;;;;;;1.33;0.80;;;19.00;99.90;;;;;;5052115;28;20468;-78
2021/06/21 01:25:29;;;;;;;4.63;3.80;;;18.90;99.90;;;;;;5052136;28;20443;-78
2021/06/21 01:28:01;;;;;;;0.50;0.40;;;18.80;99.90;;;;;;5041095;28;20487;-77
2021/06/21 01:30:52;;;;;;;0.50;0.30;;;18.80;99.90;;;;;;5052344;28;20454;-75
2021/06/21 01:33:21;;;;;;;0.80;0.67;;;18.70;99.90;;;;;;5041833;28;20465;-78
2021/06/21 01:35:52;;;;;;;1.63;1.50;;;18.70;99.90;;;;;;5032468;28;20445;-78
2021/06/21 01:38:23;;;;;;;2.10;2.00;;;18.70;99.90;;;;;;5032001;28;20546;-77
2021/06/21 01:40:54;;;;;;;2.60;2.40;;;18.70;99.90;;;;;;5032382;28;20803;-78
2021/06/21 01:43:26;;;;;;;2.03;1.93;;;18.70;99.90;;;;;;5031823;28;20477;-77
2021/06/21 01:45:53;;;;;;;0.50;0.30;;;18.60;99.90;;;;;;5031741;28;20456;-78
2021/06/21 01:48:24;;;;;;;0.97;0.97;;;18.60;99.90;;;;;;5031946;28;20456;-76
2021/06/21 01:50:55;;;;;;;2.67;0.70;;;18.60;99.90;;;;;;5032691;28;20433;-79
2021/06/21 01:53:25;;;;;;;0.50;0.43;;;18.50;99.90;;;;;;5031911;28;20855;-77
2021/06/21 01:55:58;;;;;;;0.50;0.30;;;18.50;99.90;;;;;;5032033;28;20784;-79
2021/06/21 01:58:28;;;;;;;0.50;0.33;;;18.50;99.90;;;;;;5032217;28;20446;-75
2021/06/21 02:00:54;;;;;;;0.50;0.50;;;18.50;99.90;;;;;;5044438;28;20437;-79
2021/06/21 02:03:24;;;;;;;0.70;0.70;;;18.50;99.90;;;;;;5043704;28;20468;-77
2021/06/21 02:05:51;;;;;;;0.50;0.40;;;18.40;99.90;;;;;;5052248;28;20887;-79
2021/06/21 02:08:21;;;;;;;1.87;1.23;;;18.40;99.90;;;;;;5051712;28;20482;-78
2021/06/21 02:10:51;;;;;;;0.50;0.30;;;18.30;99.90;;;;;;5052242;28;20437;-78
2021/06/21 02:13:20;;;;;;;0.50;0.30;;;18.30;99.90;;;;;;5051992;28;20464;-75
2021/06/21 02:15:48;;;;;;;0.50;0.30;;;18.30;99.90;;;;;;5051658;28;20444;-79
2021/06/21 02:18:17;;;;;;;2.83;0.80;;;18.20;99.90;;;;;;5051620;28;20780;-77
2021/06/21 02:20:46;;;;;;;3.13;2.93;;;18.20;99.90;;;;;;5052224;28;20440;-78
2021/06/21 02:23:13;;;;;;;1.00;0.60;;;18.10;99.90;;;;;;5051963;28;20475;-78
2021/06/21 02:25:40;;;;;;;0.50;0.40;;;18.10;99.90;;;;;;5051934;28;20744;-78
2021/06/21 02:28:07;;;;;;;0.50;0.40;;;18.10;99.90;;;;;;5051658;28;20474;-77
2021/06/21 02:30:36;;;;;;;5.13;1.73;;;18.00;99.90;;;;;;5055280;28;20443;-78
2021/06/21 02:33:03;;;;;;;0.70;0.70;;;18.00;99.90;;;;;;5047731;28;20494;-79
2021/06/21 02:35:30;;;;;;;6.20;1.23;;;17.90;99.90;;;;;;5056097;28;20443;-78
2021/06/21 02:37:58;;;;;;;0.60;0.57;;;17.90;99.90;;;;;;5055974;28;20449;-79
2021/06/21 02:40:25;;;;;;;0.50;0.43;;;17.90;99.90;;;;;;5055872;28;20445;-78
2021/06/21 02:42:52;;;;;;;0.50;0.40;;;17.80;99.90;;;;;;5056166;28;20499;-78
2021/06/21 02:45:19;;;;;;;0.50;0.30;;;17.80;99.90;;;;;;5056091;28;20451;-79
2021/06/21 02:47:46;;;;;;;0.50;0.30;;;17.70;99.90;;;;;;5055363;28;20490;-78
2021/06/21 02:50:14;;;;;;;0.50;0.30;;;17.80;99.90;;;;;;5055736;28;21125;-78
2021/06/21 02:52:50;;;;;;;0.50;0.30;;;17.70;99.90;;;;;;5056034;28;21007;-78
2021/06/21 02:55:24;;;;;;;0.50;0.30;;;17.70;99.90;;;;;;5055916;28;20428;-79
2021/06/21 02:57:59;;;;;;;0.50;0.40;;;17.60;99.90;;;;;;5055597;28;20882;-77
2021/06/21 03:00:28;;;;;;;0.83;0.83;;;17.60;99.90;;;;;;5054600;28;20436;-77
2021/06/21 03:02:56;;;;;;;0.50;0.30;;;17.70;99.90;;;;;;5047056;28;20456;-79
2021/06/21 03:05:24;;;;;;;0.50;0.40;;;17.70;99.90;;;;;;5055151;28;20802;-79
2021/06/21 03:07:52;;;;;;;2.30;1.33;;;17.70;99.90;;;;;;5054768;28;20486;-79
2021/06/21 03:10:21;;;;;;;0.50;0.30;;;17.70;99.90;;;;;;5055267;28;20444;-79
2021/06/21 03:12:49;;;;;;;2.37;2.27;;;17.70;99.90;;;;;;5055712;28;20845;-79
2021/06/21 03:15:20;;;;;;;0.50;0.40;;;17.50;99.90;;;;;;5054695;28;20528;-78
2021/06/21 03:17:49;;;;;;;0.50;0.30;;;17.40;99.90;;;;;;5054325;28;20438;-78
2021/06/21 03:20:18;;;;;;;0.50;0.50;;;17.40;99.90;;;;;;5054134;28;20436;-78
2021/06/21 03:25:14;;;;;;;0.50;0.40;;;17.40;99.90;;;;;;5045582;28;20465;-83
2021/06/21 03:27:42;;;;;;;0.50;0.30;;;17.40;99.90;;;;;;5059575;28;20472;-81
2021/06/21 03:30:15;;;;;;;0.50;0.30;;;17.40;99.90;;;;;;5067168;28;20436;-81
2021/06/21 03:32:43;;;;;;;0.50;0.50;;;17.40;99.90;;;;;;5066851;28;20895;-79
2021/06/21 03:35:12;;;;;;;0.50;0.30;;;17.40;99.90;;;;;;5086718;28;20470;-81
2021/06/21 03:37:39;;;;;;;0.50;0.40;;;17.30;99.90;;;;;;5085714;28;20443;-82
2021/06/21 03:40:08;;;;;;;0.50;0.30;;;17.10;99.90;;;;;;5085264;28;20628;-82
2021/06/21 03:42:36;;;;;;;0.60;0.53;;;17.10;99.90;;;;;;5085162;28;20809;-81
2021/06/21 03:45:04;;;;;;;0.50;0.40;;;17.10;99.90;;;;;;5085776;28;20464;-81
2021/06/21 03:47:31;;;;;;;0.50;0.30;;;17.20;99.90;;;;;;5084439;28;20468;-82
2021/06/21 03:49:58;;;;;;;0.50;0.30;;;17.20;99.90;;;;;;5085035;28;20451;-81
2021/06/21 03:52:25;;;;;;;0.50;0.30;;;17.10;99.90;;;;;;5085397;28;20825;-80
2021/06/21 03:55:06;;;;;;;0.50;0.40;;;17.10;99.90;;;;;;5086136;28;20454;-81
2021/06/21 03:57:33;;;;;;;0.50;0.40;;;17.10;99.90;;;;;;5066039;28;20468;-81
2021/06/21 04:00:00;;;;;;;0.50;0.30;;;17.10;99.90;;;;;;5065305;28;20441;-81
2021/06/21 04:02:28;;;;;;;0.50;0.30;;;17.10;99.90;;;;;;5065587;28;20457;-81
2021/06/21 04:04:55;;;;;;;0.50;0.40;;;17.00;99.90;;;;;;5064383;28;20468;-80
2021/06/21 04:07:21;;;;;;;0.50;0.50;;;16.90;99.90;;;;;;5064364;28;20466;-81
2021/06/21 04:09:49;;;;;;;0.50;0.30;;;17.00;99.90;;;;;;5061594;28;20449;-80
2021/06/21 04:12:16;;;;;;;0.50;0.30;;;17.00;99.90;;;;;;5062051;28;20445;-81
2021/06/21 04:14:43;;;;;;;0.50;0.40;;;17.00;99.90;;;;;;5061321;28;20464;-77
2021/06/21 04:17:10;;;;;;;0.50;0.30;;;17.00;99.90;;;;;;5060189;28;20432;-80
2021/06/21 04:19:38;;;;;;;0.50;0.30;;;17.00;99.90;;;;;;5061492;28;20450;-80
2021/06/21 04:22:05;;;;;;;0.60;0.50;;;17.00;99.90;;;;;;5060739;28;20452;-83
2021/06/21 04:24:32;;;;;;;0.50;0.30;;;17.10;99.90;;;;;;5073375;28;20965;-80
2021/06/21 04:26:58;;;;;;;1.50;1.43;;;17.10;99.90;;;;;;5080913;28;20533;-80
2021/06/21 04:29:25;;;;;;;1.77;1.60;;;17.10;99.90;;;;;;5079832;28;21210;-79
2021/06/21 04:31:52;;;;;;;0.63;0.57;;;17.10;99.90;;;;;;5081659;28;20944;-79
2021/06/21 04:34:19;;;;;;;0.50;0.30;;;17.10;99.90;;;;;;5080654;28;20453;-80
2021/06/21 04:36:47;;;;;;;0.50;0.30;;;17.10;99.90;;;;;;5081657;28;20445;-77
2021/06/21 04:39:14;;;;;;;0.77;0.77;;;17.10;99.90;;;;;;5080349;28;20924;-79
2021/06/21 04:41:40;;;;;;;0.83;0.83;;;17.10;99.90;;;;;;5081264;28;20440;-79
2021/06/21 04:44:07;;;;;;;0.50;0.30;;;17.10;99.90;;;;;;5081100;28;20475;-80
2021/06/21 04:46:35;;;;;;;0.50;0.30;;;17.10;99.90;;;;;;5080944;28;20449;-80
2021/06/21 04:49:04;;;;;;;0.50;0.30;;;17.00;99.90;;;;;;5081070;28;20892;-79
2021/06/21 04:51:32;;;;;;;0.50;0.40;;;17.10;99.90;;;;;;5082359;28;20441;-81
2021/06/21 04:54:01;;;;;;;0.50;0.30;;;17.10;99.90;;;;;;5081924;28;21050;-80
2021/06/21 04:56:28;;;;;;;0.50;0.40;;;17.20;99.90;;;;;;5083280;28;20465;-81
2021/06/21 04:58:56;;;;;;;0.50;0.30;;;17.20;99.90;;;;;;5084197;28;20780;-81
2021/06/21 05:01:22;;;;;;;0.50;0.50;;;17.20;99.90;;;;;;5082889;28;20871;-80
2021/06/21 05:03:49;;;;;;;0.50;0.30;;;17.10;99.90;;;;;;5083825;28;20460;-80
2021/06/21 05:06:16;;;;;;;0.50;0.30;;;17.10;99.90;;;;;;5083562;28;20440;-81
2021/06/21 05:08:43;;;;;;;0.50;0.30;;;17.10;99.90;;;;;;5083882;28;20476;-79
2021/06/21 05:11:11;;;;;;;0.50;0.30;;;17.20;99.90;;;;;;5084568;28;20460;-81
2021/06/21 05:13:37;;;;;;;0.50;0.40;;;17.10;99.90;;;;;;5083837;28;20481;-81
2021/06/21 05:16:05;;;;;;;0.50;0.30;;;17.10;99.90;;;;;;5083988;28;20436;-81
2021/06/21 05:18:32;;;;;;;0.50;0.50;;;17.10;99.90;;;;;;5083861;28;20430;-80
2021/06/21 05:20:58;;;;;;;0.60;0.40;;;17.10;99.90;;;;;;5083803;28;20436;-80
2021/06/21 05:23:25;;;;;;;0.50;0.40;;;17.10;99.90;;;;;;5083165;28;20519;-80
2021/06/21 05:25:52;;;;;;;0.50;0.30;;;17.10;99.90;;;;;;5083776;28;20430;-81
2021/06/21 05:28:20;;;;;;;0.50;0.50;;;17.10;99.90;;;;;;5082177;28;20483;-80
2021/06/21 05:30:47;;;;;;;0.50;0.43;;;17.10;99.90;;;;;;5083632;28;20443;-81
2021/06/21 05:33:14;;;;;;;0.50;0.30;;;17.20;99.90;;;;;;5082442;28;20452;-80
2021/06/21 05:35:41;;;;;;;0.50;0.30;;;17.30;99.90;;;;;;5083137;28;20470;-81
2021/06/21 05:38:08;;;;;;;1.53;0.93;;;17.20;99.90;;;;;;5082192;28;20436;-81
2021/06/21 05:40:35;;;;;;;0.50;0.30;;;17.20;99.90;;;;;;5082125;28;20832;-82
2021/06/21 05:43:02;;;;;;;0.50;0.40;;;17.20;99.90;;;;;;5081885;28;20460;-81
2021/06/21 05:45:30;;;;;;;0.50;0.30;;;17.10;99.90;;;;;;5081082;28;20809;-80
2021/06/21 05:47:57;;;;;;;0.50;0.30;;;17.10;99.90;;;;;;5081872;28;20476;-81
2021/06/21 05:50:24;;;;;;;0.50;0.30;;;17.20;99.90;;;;;;5082912;28;20473;-81
2021/06/21 05:52:52;;;;;;;0.50;0.30;;;17.20;99.90;;;;;;5082391;28;20435;-82
2021/06/21 05:55:19;;;;;;;0.50;0.40;;;17.10;99.90;;;;;;5080628;28;20440;-80
2021/06/21 05:57:46;;;;;;;0.50;0.30;;;17.20;99.90;;;;;;5081665;28;20525;-83
2021/06/21 06:00:14;;;;;;;0.50;0.30;;;17.20;99.90;;;;;;5082525;28;20472;-82
2021/06/21 06:02:42;;;;;;;0.50;0.30;;;17.30;99.90;;;;;;5082787;28;20736;-80
2021/06/21 06:05:10;;;;;;;0.50;0.30;;;17.30;99.90;;;;;;5086225;28;20481;-81
2021/06/21 06:07:36;;;;;;;0.50;0.40;;;17.30;99.90;;;;;;5084953;28;20482;-78
2021/06/21 06:10:04;;;;;;;0.80;0.50;;;17.30;99.90;;;;;;5078146;28;20466;-80
2021/06/21 06:12:30;;;;;;;0.50;0.30;;;17.40;99.90;;;;;;5085820;28;20436;-81
2021/06/21 06:14:57;;;;;;;0.50;0.30;;;17.30;99.90;;;;;;5084626;28;20461;-81
2021/06/21 06:17:24;;;;;;;0.50;0.30;;;17.40;99.90;;;;;;5086824;28;20446;-80
2021/06/21 06:19:52;;;;;;;0.50;0.30;;;17.30;99.90;;;;;;5088702;28;20529;-79
2021/06/21 06:22:19;;;;;;;0.50;0.40;;;17.30;99.90;;;;;;5088063;28;20806;-80
2021/06/21 06:24:46;;;;;;;0.50;0.30;;;17.30;99.90;;;;;;5086172;28;21194;-79
2021/06/21 06:27:12;;;;;;;0.50;0.30;;;17.40;99.90;;;;;;5086442;28;20432;-80
2021/06/21 06:29:39;;;;;;;0.50;0.30;;;17.30;99.90;;;;;;5086844;28;20474;-82
2021/06/21 06:32:07;;;;;;;0.57;0.50;;;17.30;99.90;;;;;;5085543;28;20439;-81
2021/06/21 06:34:34;;;;;;;0.50;0.30;;;17.30;99.90;;;;;;5086365;28;20998;-82
2021/06/21 06:37:02;;;;;;;2.40;1.33;;;17.40;99.90;;;;;;5085550;28;20507;-79
2021/06/21 06:39:29;;;;;;;0.50;0.40;;;17.40;99.90;;;;;;5082282;28;20439;-79
2021/06/21 06:41:55;;;;;;;1.00;1.00;;;17.40;99.90;;;;;;5084641;28;20455;-78
2021/06/21 06:44:22;;;;;;;0.50;0.30;;;17.30;99.90;;;;;;5086526;28;20458;-81
2021/06/21 06:46:49;;;;;;;0.50;0.30;;;17.30;99.90;;;;;;5084442;28;20446;-78
2021/06/21 06:49:16;;;;;;;0.93;0.70;;;17.30;99.90;;;;;;5086852;28;20472;-80
2021/06/21 06:51:44;;;;;;;0.50;0.37;;;17.20;99.90;;;;;;5084986;28;20435;-82
2021/06/21 06:54:22;;;;;;;0.50;0.40;;;17.20;99.90;;;;;;5085203;28;20455;-82
2021/06/21 06:57:00;;;;;;;0.53;0.33;;;17.20;99.90;;;;;;5085926;28;20454;-80
2021/06/21 06:59:31;;;;;;;0.50;0.40;;;17.30;99.90;;;;;;5086467;28;20430;-81
2021/06/21 07:02:01;;;;;;;0.50;0.30;;;17.30;99.90;;;;;;5084646;28;20427;-80
2021/06/21 07:04:31;;;;;;;0.50;0.30;;;17.40;99.90;;;;;;5086299;28;20459;-78
2021/06/21 07:06:59;;;;;;;0.50;0.37;;;17.40;99.90;;;;;;5085290;28;20446;-81
2021/06/21 07:09:29;;;;;;;0.50;0.30;;;17.40;99.90;;;;;;5083032;28;21047;-79
2021/06/21 07:11:56;;;;;;;0.50;0.40;;;17.40;99.90;;;;;;5082937;28;20448;-78
2021/06/21 07:14:23;;;;;;;0.50;0.40;;;17.30;99.90;;;;;;5082331;28;20460;-80
2021/06/21 07:16:50;;;;;;;0.50;0.30;;;17.40;99.90;;;;;;5081112;28;20451;-78
2021/06/21 07:19:18;;;;;;;0.50;0.30;;;17.40;99.90;;;;;;5081206;28;20436;-81
2021/06/21 07:21:45;;;;;;;0.50;0.30;;;17.40;99.90;;;;;;5081777;28;20451;-81
2021/06/21 07:24:12;;;;;;;0.50;0.30;;;17.60;99.90;;;;;;5081176;28;20547;-79
2021/06/21 07:26:42;;;;;;;0.50;0.40;;;17.70;99.90;;;;;;5081500;28;20436;-81
2021/06/21 07:29:09;;;;;;;0.50;0.30;;;17.80;99.90;;;;;;5081269;28;20512;-79
2021/06/21 07:31:36;;;;;;;0.50;0.30;;;17.80;99.90;;;;;;5081165;28;20440;-80
2021/06/21 07:34:04;;;;;;;0.50;0.30;;;17.70;99.90;;;;;;5080896;28;20464;-80
2021/06/21 07:36:31;;;;;;;1.07;1.07;;;17.70;99.90;;;;;;5080761;28;20443;-80
2021/06/21 07:38:58;;;;;;;0.50;0.30;;;17.80;99.90;;;;;;5080883;28;20932;-80
2021/06/21 07:41:25;;;;;;;0.50;0.30;;;17.80;99.90;;;;;;5081685;28;20439;-80
2021/06/21 07:43:53;;;;;;;0.50;0.30;;;17.70;99.90;;;;;;5081053;28;20470;-81
2021/06/21 07:46:20;;;;;;;0.50;0.30;;;17.70;99.90;;;;;;5081232;28;20534;-81
2021/06/21 07:48:47;;;;;;;0.73;0.73;;;17.70;99.90;;;;;;5081576;28;20467;-80
2021/06/21 07:51:15;;;;;;;0.50;0.30;;;17.70;99.90;;;;;;5080707;28;20988;-80
2021/06/21 07:53:43;;;;;;;0.60;0.60;;;17.70;99.90;;;;;;5078016;28;20558;-80
2021/06/21 07:56:13;;;;;;;0.50;0.40;;;17.60;99.90;;;;;;5078996;28;20562;-80
2021/06/21 07:58:41;;;;;;;0.50;0.30;;;17.60;99.90;;;;;;5080988;28;20451;-79
2021/06/21 08:01:11;;;;;;;0.50;0.30;;;17.70;99.90;;;;;;5081603;28;20497;-81
2021/06/21 08:03:38;;;;;;;0.50;0.30;;;17.70;99.90;;;;;;5079969;28;20542;-81
2021/06/21 08:06:08;;;;;;;0.50;0.30;;;17.70;99.90;;;;;;5081426;28;20442;-79
2021/06/21 08:08:35;;;;;;;0.50;0.30;;;17.60;99.90;;;;;;5082613;28;20464;-79
2021/06/21 08:11:03;;;;;;;0.50;0.40;;;17.70;99.90;;;;;;5082048;28;20458;-80
2021/06/21 08:13:29;;;;;;;0.50;0.30;;;17.80;99.90;;;;;;5082669;28;20478;-81
2021/06/21 08:15:56;;;;;;;0.50;0.30;;;17.80;99.90;;;;;;5081692;28;20813;-81
2021/06/21 08:18:24;;;;;;;0.50;0.30;;;17.80;99.90;;;;;;5083124;28;20451;-80
2021/06/21 08:20:52;;;;;;;0.50;0.30;;;17.90;99.90;;;;;;5081865;28;20445;-78
2021/06/21 08:23:20;;;;;;;0.70;0.60;;;17.80;99.90;;;;;;5081638;28;20486;-81
2021/06/21 08:25:47;;;;;;;0.50;0.50;;;18.00;99.90;;;;;;5081659;28;20470;-78
2021/06/21 08:28:14;;;;;;;0.60;0.60;;;18.00;99.90;;;;;;5081535;28;20479;-80
2021/06/21 08:30:41;;;;;;;0.50;0.30;;;18.00;99.90;;;;;;5081695;28;20435;-80
2021/06/21 08:33:09;;;;;;;0.50;0.40;;;18.00;99.90;;;;;;5083244;28;20464;-80
2021/06/21 08:35:37;;;;;;;1.03;0.93;;;18.10;99.90;;;;;;5082028;28;20443;-79
2021/06/21 08:38:04;;;;;;;0.50;0.50;;;18.00;99.90;;;;;;5081718;28;20428;-80
2021/06/21 08:40:33;;;;;;;17.60;16.70;;;18.10;99.90;;;;;;5081171;28;20431;-81
2021/06/21 08:43:01;;;;;;;0.50;0.30;;;18.20;99.90;;;;;;5081451;28;20424;-80
2021/06/21 08:45:30;;;;;;;0.50;0.30;;;18.20;99.90;;;;;;5083934;28;20450;-79
2021/06/21 08:47:57;;;;;;;0.50;0.30;;;18.20;99.90;;;;;;5082052;28;20450;-80
2021/06/21 08:50:24;;;;;;;0.50;0.30;;;18.10;99.90;;;;;;5082200;28;20483;-79
2021/06/21 08:52:53;;;;;;;0.50;0.37;;;18.10;99.90;;;;;;5082348;28;20928;-80
2021/06/21 08:55:20;;;;;;;1.73;1.23;;;18.20;99.90;;;;;;5081693;28;20431;-80
2021/06/21 08:57:49;;;;;;;0.50;0.30;;;18.30;99.90;;;;;;5082360;28;20438;-77
2021/06/21 09:00:18;;;;;;;0.50;0.30;;;18.40;99.90;;;;;;5082164;28;20443;-80
2021/06/21 09:02:48;;;;;;;0.50;0.30;;;18.50;99.90;;;;;;5081626;28;20523;-81
2021/06/21 09:05:16;;;;;;;0.50;0.30;;;18.50;99.90;;;;;;5082862;28;20443;-81
2021/06/21 09:07:43;;;;;;;0.60;0.50;;;18.50;99.90;;;;;;5082415;28;20436;-81
2021/06/21 09:10:25;;;;;;;0.50;0.40;;;18.40;99.90;;;;;;5082797;28;20506;-82
2021/06/21 09:13:04;;;;;;;0.50;0.40;;;18.30;99.90;;;;;;5082855;28;20492;-80
2021/06/21 09:15:32;;;;;;;0.50;0.30;;;18.30;99.90;;;;;;5083897;28;20431;-80
2021/06/21 09:18:00;;;;;;;0.50;0.30;;;18.30;99.90;;;;;;5082645;28;20435;-79
2021/06/21 09:20:27;;;;;;;1.40;0.90;;;18.30;99.90;;;;;;5083592;28;20504;-80
2021/06/21 09:23:01;;;;;;;0.50;0.30;;;18.30;99.90;;;;;;5081381;28;20833;-82
2021/06/21 09:28:05;;;;;;;0.50;0.30;;;18.20;99.90;;;;;;5063407;22;20538;-78
2021/06/21 09:30:48;;;;;;;0.50;0.40;;;18.20;99.90;;;;;;5044363;28;20854;-79
2021/06/21 09:33:28;;;;;;;0.50;0.50;;;18.20;99.90;;;;;;5051610;28;20448;-78
2021/06/21 09:35:55;;;;;;;0.50;0.30;;;18.10;99.90;;;;;;5041761;28;20481;-77
2021/06/21 09:38:21;;;;;;;0.50;0.30;;;18.10;99.90;;;;;;5051201;28;20845;-78
2021/06/21 09:40:50;;;;;;;0.50;0.30;;;18.00;99.90;;;;;;5051873;28;20437;-78
2021/06/21 09:43:21;;;;;;;1.23;1.13;;;18.00;99.90;;;;;;5051606;28;20475;-79
2021/06/21 09:46:11;;;;;;;0.50;0.40;;;17.90;99.90;;;;;;5051982;28;20436;-78
2021/06/21 09:48:41;;;;;;;0.50;0.30;;;17.90;99.90;;;;;;5051215;28;20488;-78
2021/06/21 09:51:22;;;;;;;1.27;1.00;;;17.80;99.90;;;;;;5052155;28;20444;-77
2021/06/21 09:54:01;;;;;;;0.50;0.30;;;17.80;99.90;;;;;;5051850;28;20432;-75
2021/06/21 09:56:33;;;;;;;0.53;0.53;;;17.70;99.90;;;;;;5057295;28;20465;-77
2021/06/21 09:59:01;;;;;;;0.50;0.43;;;17.70;99.90;;;;;;5071515;28;20440;-78
2021/06/21 10:01:29;;;;;;;0.50;0.37;;;17.60;99.90;;;;;;5071584;28;20452;-77
2021/06/21 10:03:56;;;;;;;0.50;0.30;;;17.50;99.90;;;;;;5071793;28;20450;-78
2021/06/21 10:06:23;;;;;;;1.73;0.97;;;17.50;99.90;;;;;;5071688;28;20463;-78
2021/06/21 10:08:52;;;;;;;0.50;0.30;;;17.50;99.90;;;;;;5071376;28;20472;-77
2021/06/21 10:11:29;;;;;;;0.50;0.30;;;17.50;99.90;;;;;;5071577;28;20440;-77
2021/06/21 10:13:56;;;;;;;0.50;0.40;;;17.50;99.90;;;;;;5071429;28;20439;-77
2021/06/21 10:16:25;;;;;;;0.50;0.30;;;17.40;99.90;;;;;;5071548;28;20459;-79
2021/06/21 10:18:53;;;;;;;0.50;0.40;;;17.40;99.90;;;;;;5071395;28;20848;-77
2021/06/21 10:21:20;;;;;;;0.50;0.30;;;17.50;99.90;;;;;;5071700;28;21008;-79
2021/06/21 10:23:47;;;;;;;0.50;0.40;;;17.50;99.90;;;;;;5071667;28;20428;-78
2021/06/21 10:26:15;;;;;;;0.50;0.30;;;17.50;99.90;;;;;;5070813;28;20977;-77
2021/06/21 10:28:42;;;;;;;0.50;0.30;;;17.50;99.90;;;;;;5071196;28;20439;-74
2021/06/21 10:31:09;;;;;;;0.50;0.30;;;17.50;99.90;;;;;;5070845;28;20439;-78
2021/06/21 10:33:37;;;;;;;0.50;0.30;;;17.50;99.90;;;;;;5071447;28;20444;-78
2021/06/21 10:36:07;;;;;;;0.50;0.30;;;17.50;99.90;;;;;;5074293;28;20458;-79
2021/06/21 10:38:34;;;;;;;0.50;0.40;;;17.50;99.90;;;;;;5072005;28;20446;-78
2021/06/21 10:41:05;;;;;;;0.50;0.30;;;17.40;99.90;;;;;;5071278;28;20778;-78
2021/06/21 10:43:49;;;;;;;0.50;0.30;;;17.30;99.90;;;;;;5072439;28;20419;-78
2021/06/21 10:46:23;;;;;;;0.50;0.40;;;17.20;99.90;;;;;;5071619;28;20466;-79
2021/06/21 10:49:34;;;;;;;1.20;0.80;;;17.10;99.90;;;;;;5071669;28;20439;-79
2021/06/21 10:52:22;;;;;;;0.50;0.30;;;17.10;99.90;;;;;;5069173;28;20528;-78
2021/06/21 10:54:48;;;;;;;0.50;0.30;;;17.00;99.90;;;;;;5074493;28;20440;-78
2021/06/21 10:57:21;;;;;;;0.50;0.40;;;17.00;99.90;;;;;;5074035;28;20471;-78
2021/06/21 11:00:14;;;;;;;0.50;0.40;;;16.70;99.90;;;;;;5074798;28;20593;-78
2021/06/21 11:02:41;;;;;;;0.97;0.87;;;16.70;99.90;;;;;;5074628;28;20439;-79
2021/06/21 11:05:09;;;;;;;0.50;0.30;;;16.70;99.90;;;;;;5074433;28;20440;-78
2021/06/21 11:07:37;;;;;;;0.50;0.30;;;16.70;99.90;;;;;;5074389;28;20460;-78
2021/06/21 11:10:07;;;;;;;0.50;0.30;;;16.70;99.90;;;;;;5074883;28;20467;-78
2021/06/21 11:12:40;;;;;;;0.50;0.30;;;16.70;99.90;;;;;;5074320;28;20438;-77
2021/06/21 11:15:16;;;;;;;3.90;0.70;;;16.70;99.90;;;;;;5074024;28;20482;-79
2021/06/21 11:18:00;;;;;;;0.50;0.30;;;16.70;99.90;;;;;;5074240;28;21016;-79
2021/06/21 11:20:36;;;;;;;0.60;0.40;;;16.60;99.90;;;;;;5074827;28;20420;-78
2021/06/21 11:23:05;;;;;;;0.50;0.40;;;16.50;99.90;;;;;;5074814;28;20445;-77
2021/06/21 11:25:34;;;;;;;0.50;0.40;;;16.40;99.90;;;;;;5074923;28;20836;-78
2021/06/21 11:28:01;;;;;;;0.50;0.30;;;16.20;99.90;;;;;;5074021;28;20807;-78
2021/06/21 11:30:41;;;;;;;0.50;0.30;;;16.10;99.90;;;;;;5075843;28;20477;-78
2021/06/21 11:33:13;;;;;;;0.60;0.40;;;16.10;99.90;;;;;;5076347;28;20817;-77
2021/06/21 11:36:04;;;;;;;0.50;0.30;;;15.90;99.90;;;;;;5074222;28;21022;-77
2021/06/21 11:38:36;;;;;;;0.50;0.30;;;15.90;99.90;;;;;;5073738;28;20442;-77
2021/06/21 11:41:27;;;;;;;0.50;0.30;;;15.90;99.90;;;;;;5073839;28;20942;-78
2021/06/21 11:43:56;;;;;;;0.50;0.40;;;15.90;99.90;;;;;;5075467;28;20421;-78
2021/06/21 11:46:50;;;;;;;0.50;0.30;;;15.90;99.90;;;;;;5075138;28;20494;-78
2021/06/21 11:49:19;;;;;;;0.50;0.30;;;15.90;99.90;;;;;;5051034;28;20472;-78
2021/06/21 11:52:00;;;;;;;0.50;0.30;;;15.90;99.90;;;;;;5074727;28;20431;-78
2021/06/21 11:54:28;;;;;;;0.50;0.30;;;16.00;99.90;;;;;;5075037;28;20658;-79
2021/06/21 11:56:58;;;;;;;0.50;0.40;;;16.10;99.90;;;;;;5073558;28;20824;-78
2021/06/21 11:59:29;;;;;;;0.50;0.30;;;16.20;99.90;;;;;;5074262;28;20429;-77
2021/06/21 12:02:01;;;;;;;0.50;0.30;;;16.20;99.90;;;;;;5073822;28;20440;-79
2021/06/21 12:04:28;;;;;;;0.50;0.40;;;16.30;99.90;;;;;;5075784;28;20485;-79
2021/06/21 12:06:55;;;;;;;0.50;0.30;;;16.30;99.90;;;;;;5075865;28;20467;-80
2021/06/21 12:09:22;;;;;;;0.50;0.30;;;16.40;99.90;;;;;;5075842;28;20479;-78
2021/06/21 12:11:52;;;;;;;0.50;0.30;;;16.60;99.90;;;;;;5075522;28;20441;-78
2021/06/21 12:14:22;;;;;;;0.50;0.30;;;16.70;99.90;;;;;;5076175;28;20477;-79
2021/06/21 12:16:49;;;;;;;0.50;0.30;;;16.90;99.90;;;;;;5075651;28;20462;-78
2021/06/21 12:19:17;;;;;;;0.50;0.30;;;16.90;99.90;;;;;;5075594;28;20805;-79
2021/06/21 12:21:45;;;;;;;0.50;0.30;;;17.10;99.90;;;;;;5075260;28;20449;-77
2021/06/21 12:24:19;;;;;;;0.50;0.37;;;17.30;99.90;;;;;;5075072;28;20433;-79
2021/06/21 12:26:47;;;;;;;0.50;0.30;;;17.40;99.90;;;;;;5074529;28;20468;-79
2021/06/21 12:29:22;;;;;;;0.50;0.30;;;17.40;99.90;;;;;;5075460;28;20794;-79
2021/06/21 12:31:54;;;;;;;0.50;0.30;;;17.20;99.90;;;;;;5075662;28;20424;-77
2021/06/21 12:34:50;;;;;;;0.50;0.40;;;17.20;99.90;;;;;;5075736;28;20936;-79
2021/06/21 12:37:26;;;;;;;0.50;0.30;;;17.30;99.90;;;;;;5075278;28;20464;-79
2021/06/21 12:39:55;;;;;;;0.50;0.30;;;17.40;99.90;;;;;;5075889;28;20459;-81
2021/06/21 12:42:26;;;;;;;0.50;0.40;;;17.40;99.90;;;;;;5075043;28;20960;-79
2021/06/21 12:44:53;;;;;;;0.50;0.30;;;17.40;99.90;;;;;;5075205;28;20459;-76
2021/06/21 12:47:25;;;;;;;0.50;0.30;;;17.30;99.90;;;;;;5074945;28;20973;-78
2021/06/21 12:49:55;;;;;;;0.50;0.30;;;17.30;99.90;;;;;;5074786;28;20474;-80
2021/06/21 12:52:24;;;;;;;0.50;0.30;;;17.20;99.90;;;;;;5075696;28;20818;-79
2021/06/21 12:55:05;;;;;;;0.50;0.30;;;17.20;99.90;;;;;;5075321;28;20450;-78
2021/06/21 12:57:51;;;;;;;0.50;0.33;;;17.20;99.90;;;;;;5073979;28;20462;-79
2021/06/21 13:00:36;;;;;;;0.50;0.30;;;17.20;99.90;;;;;;5075142;28;20487;-79
2021/06/21 13:03:12;;;;;;;0.50;0.30;;;17.10;99.90;;;;;;5074574;28;20473;-79
2021/06/21 13:05:44;;;;;;;0.50;0.33;;;17.00;99.90;;;;;;5074862;28;20436;-78